sensor_id;sensor_type;location;lat;lon;timestamp;P1;durP1;ratioP1;P2;durP2;ratioP2
41964;SDS011;50120;53.250;8.702;2023-02-08T06:49:19;46.80;;;17.65;;
41964;SDS011;50120;53.250;8.702;2023-02-08T06:51:45;40.97;;;16.33;;
41964;SDS011;50120;53.250;8.702;2023-02-08T06:54:10;41.88;;;16.30;;
41964;SDS011;50120;53.250;8.702;2023-02-08T06:56:36;42.17;;;15.88;;
41964;SDS011;50120;53.250;8.702;2023-02-08T06:59:02;41.58;;;17.15;;
41964;SDS011;50120;53.250;8.702;2023-02-08T07:01:27;44.30;;;16.92;;
41964;SDS011;50120;53.250;8.702;2023-02-08T07:03:53;43.83;;;16.40;;
41964;SDS011;50120;53.250;8.702;2023-02-08T07:06:19;35.53;;;15.15;;
41964;SDS011;50120;53.250;8.702;2023-02-08T07:08:45;46.90;;;18.20;;
41964;SDS011;50120;53.250;8.702;2023-02-08T07:11:13;44.13;;;17.40;;
41964;SDS011;50120;53.250;8.702;2023-02-08T07:13:40;42.38;;;16.55;;
41964;SDS011;50120;53.250;8.702;2023-02-08T07:16:07;40.55;;;15.73;;
41964;SDS011;50120;53.250;8.702;2023-02-08T07:18:34;47.70;;;19.23;;
41964;SDS011;50120;53.250;8.702;2023-02-08T07:21:00;46.22;;;18.15;;
41964;SDS011;50120;53.250;8.702;2023-02-08T07:23:27;47.45;;;18.95;;
41964;SDS011;50120;53.250;8.702;2023-02-08T07:25:56;45.47;;;18.83;;
41964;SDS011;50120;53.250;8.702;2023-02-08T07:28:33;49.40;;;20.20;;
41964;SDS011;50120;53.250;8.702;2023-02-08T07:31:03;48.47;;;19.42;;
41964;SDS011;50120;53.250;8.702;2023-02-08T07:33:33;58.63;;;22.38;;
41964;SDS011;50120;53.250;8.702;2023-02-08T07:36:00;56.25;;;21.40;;
41964;SDS011;50120;53.250;8.702;2023-02-08T07:38:27;64.50;;;23.08;;
41964;SDS011;50120;53.250;8.702;2023-02-08T07:41:01;65.18;;;23.85;;
41964;SDS011;50120;53.250;8.702;2023-02-08T11:51:58;37.08;;;15.02;;
41964;SDS011;50120;53.250;8.702;2023-02-08T11:54:34;31.35;;;13.05;;
41964;SDS011;50120;53.250;8.702;2023-02-08T11:57:15;31.85;;;13.73;;
41964;SDS011;50120;53.250;8.702;2023-02-08T11:59:46;33.80;;;13.40;;
41964;SDS011;50120;53.250;8.702;2023-02-08T12:02:36;31.55;;;12.80;;
41964;SDS011;50120;53.250;8.702;2023-02-08T12:05:08;36.05;;;13.27;;
41964;SDS011;50120;53.250;8.702;2023-02-08T12:07:56;33.50;;;13.32;;
41964;SDS011;50120;53.250;8.702;2023-02-08T12:21:24;23.05;;;10.07;;
41964;SDS011;50120;53.250;8.702;2023-02-08T12:23:57;21.00;;;10.02;;
41964;SDS011;50120;53.250;8.702;2023-02-08T12:26:37;24.65;;;9.65;;
41964;SDS011;50120;53.250;8.702;2023-02-08T12:29:18;21.80;;;9.55;;
41964;SDS011;50120;53.250;8.702;2023-02-08T12:31:54;21.58;;;9.35;;
41964;SDS011;50120;53.250;8.702;2023-02-08T12:53:45;15.57;;;7.50;;
41964;SDS011;50120;53.250;8.702;2023-02-08T12:56:17;20.67;;;8.60;;
41964;SDS011;50120;53.250;8.702;2023-02-08T12:58:47;22.38;;;9.77;;
41964;SDS011;50120;53.250;8.702;2023-02-08T13:01:20;18.08;;;8.65;;
41964;SDS011;50120;53.250;8.702;2023-02-08T13:03:56;20.00;;;8.70;;
41964;SDS011;50120;53.250;8.702;2023-02-08T13:06:51;24.08;;;9.48;;
41964;SDS011;50120;53.250;8.702;2023-02-08T13:14:54;28.60;;;10.50;;
41964;SDS011;50120;53.250;8.702;2023-02-08T13:22:31;27.92;;;9.85;;
41964;SDS011;50120;53.250;8.702;2023-02-08T13:25:06;25.33;;;10.88;;
41964;SDS011;50120;53.250;8.702;2023-02-08T13:27:40;22.77;;;10.82;;
41964;SDS011;50120;53.250;8.702;2023-02-08T13:30:06;22.75;;;9.57;;
41964;SDS011;50120;53.250;8.702;2023-02-08T13:32:43;20.65;;;9.38;;
41964;SDS011;50120;53.250;8.702;2023-02-08T13:35:12;24.00;;;9.77;;
41964;SDS011;50120;53.250;8.702;2023-02-08T13:37:41;21.85;;;9.57;;
41964;SDS011;50120;53.250;8.702;2023-02-08T13:40:22;24.25;;;9.68;;
41964;SDS011;50120;53.250;8.702;2023-02-08T13:42:58;35.42;;;12.18;;
41964;SDS011;50120;53.250;8.702;2023-02-08T13:45:49;24.63;;;11.25;;
41964;SDS011;50120;53.250;8.702;2023-02-08T13:48:17;31.55;;;12.68;;
41964;SDS011;50120;53.250;8.702;2023-02-08T13:50:53;30.95;;;12.68;;
41964;SDS011;50120;53.250;8.702;2023-02-08T13:56:09;28.50;;;11.23;;
41964;SDS011;50120;53.250;8.702;2023-02-08T14:03:40;28.70;;;11.80;;
41964;SDS011;50120;53.250;8.702;2023-02-08T14:11:14;23.77;;;10.02;;
41964;SDS011;50120;53.250;8.702;2023-02-08T14:13:58;28.17;;;11.23;;
41964;SDS011;50120;53.250;8.702;2023-02-08T14:21:45;22.13;;;9.65;;
41964;SDS011;50120;53.250;8.702;2023-02-08T14:24:20;33.42;;;13.52;;
41964;SDS011;50120;53.250;8.702;2023-02-08T14:26:51;26.20;;;10.90;;
41964;SDS011;50120;53.250;8.702;2023-02-08T14:32:38;24.38;;;10.70;;
41964;SDS011;50120;53.250;8.702;2023-02-08T14:37:49;26.77;;;11.75;;
41964;SDS011;50120;53.250;8.702;2023-02-08T14:43:33;21.47;;;10.13;;
41964;SDS011;50120;53.250;8.702;2023-02-08T14:49:16;28.83;;;11.90;;
41964;SDS011;50120;53.250;8.702;2023-02-08T14:51:46;31.98;;;12.40;;
41964;SDS011;50120;53.250;8.702;2023-02-08T14:54:35;28.63;;;11.18;;
41964;SDS011;50120;53.250;8.702;2023-02-08T14:57:23;28.00;;;11.35;;
41964;SDS011;50120;53.250;8.702;2023-02-08T14:59:52;31.27;;;11.82;;
41964;SDS011;50120;53.250;8.702;2023-02-08T15:02:20;23.63;;;10.73;;
41964;SDS011;50120;53.250;8.702;2023-02-08T15:04:50;29.70;;;11.75;;
41964;SDS011;50120;53.250;8.702;2023-02-08T15:07:30;31.20;;;12.82;;
41964;SDS011;50120;53.250;8.702;2023-02-08T15:10:03;29.25;;;11.82;;
41964;SDS011;50120;53.250;8.702;2023-02-08T15:12:36;23.90;;;10.65;;
41964;SDS011;50120;53.250;8.702;2023-02-08T15:15:04;30.63;;;11.80;;
41964;SDS011;50120;53.250;8.702;2023-02-08T15:20:19;24.73;;;10.60;;
41964;SDS011;50120;53.250;8.702;2023-02-08T15:23:00;24.88;;;10.07;;
41964;SDS011;50120;53.250;8.702;2023-02-08T15:25:28;25.15;;;10.68;;
41964;SDS011;50120;53.250;8.702;2023-02-08T15:28:00;23.52;;;10.10;;
41964;SDS011;50120;53.250;8.702;2023-02-08T15:30:32;21.60;;;9.30;;
41964;SDS011;50120;53.250;8.702;2023-02-08T15:33:00;25.15;;;10.45;;
41964;SDS011;50120;53.250;8.702;2023-02-08T15:35:32;23.27;;;10.02;;
41964;SDS011;50120;53.250;8.702;2023-02-08T15:37:59;27.33;;;10.95;;
41964;SDS011;50120;53.250;8.702;2023-02-08T15:40:30;28.95;;;11.52;;
